Time;durP1;ratioP1;P1;durP2;ratioP2;P2;SDS_P1;SDS_P2;PMS_P1;PMS_P2;Temp;Humidity;BMP_temperature;BMP_pressure;BME280_temperature;BME280_humidity;BME280_pressure;Samples;Min_cycle;Max_cycle;Signal;HPM_P1;HPM_P2
2022/09/10 00:01:31;;;;;;;6.40;0.70;;;;;;;13.85;100.00;96668.78;5029768;28;20052;-66
2022/09/10 00:03:58;;;;;;;2.55;0.60;;;;;;;13.74;100.00;96672.28;5004965;28;20029;-65
2022/09/10 00:06:26;;;;;;;3.25;0.60;;;;;;;13.63;100.00;96668.69;5012745;28;20374;-69
2022/09/10 00:08:56;;;;;;;1.50;0.60;;;;;;;13.54;100.00;96673.75;4996933;28;20125;-71
2022/09/10 00:11:30;;;;;;;3.80;0.77;;;;;;;13.57;100.00;96670.22;5001585;28;20065;-71
2022/09/10 00:14:01;;;;;;;3.13;0.88;;;;;;;13.54;100.00;96665.50;5001337;28;20104;-68
2022/09/10 00:16:28;;;;;;;2.45;0.60;;;;;;;13.54;100.00;96666.31;5011709;28;20046;-70
2022/09/10 00:18:53;;;;;;;0.98;0.68;;;;;;;13.81;100.00;96663.25;5010118;28;20052;-71
2022/09/10 00:21:19;;;;;;;1.00;0.50;;;;;;;13.85;100.00;96660.50;5005015;28;20041;-71
2022/09/10 00:23:46;;;;;;;1.35;0.60;;;;;;;13.81;100.00;96663.25;4995614;28;20029;-71
2022/09/10 00:26:22;;;;;;;1.10;0.60;;;;;;;13.89;100.00;96655.78;5010268;28;20042;-71
2022/09/10 00:28:49;;;;;;;1.15;0.40;;;;;;;13.80;100.00;96663.63;5016104;28;20049;-71
2022/09/10 00:31:16;;;;;;;1.98;0.50;;;;;;;13.82;100.00;96664.81;5018103;28;20042;-69
2022/09/10 00:33:41;;;;;;;3.75;0.63;;;;;;;13.78;100.00;96661.28;5019168;28;20084;-70
2022/09/10 00:36:16;;;;;;;0.95;0.40;;;;;;;13.72;100.00;96666.38;4990401;28;20037;-68
2022/09/10 00:38:42;;;;;;;0.95;0.43;;;;;;;13.83;100.00;96658.16;5023346;28;20084;-70
2022/09/10 00:41:08;;;;;;;1.55;0.47;;;;;;;13.89;100.00;96653.03;5014909;28;20037;-69
2022/09/10 00:43:56;;;;;;;1.10;0.50;;;;;;;13.73;100.00;96654.16;5024800;28;20426;-69
2022/09/10 00:46:35;;;;;;;1.13;0.52;;;;;;;13.67;100.00;96660.44;4996424;28;20049;-69
2022/09/10 00:49:11;;;;;;;1.43;0.73;;;;;;;13.63;100.00;96659.63;5023246;28;20531;-69
2022/09/10 00:51:36;;;;;;;3.42;0.60;;;;;;;13.63;100.00;96651.38;5020110;28;20068;-69
2022/09/10 00:54:04;;;;;;;2.92;1.23;;;;;;;13.45;100.00;96648.56;5018687;28;20061;-68
2022/09/10 00:56:31;;;;;;;1.50;0.50;;;;;;;13.44;100.00;96653.28;5020094;28;20073;-70
2022/09/10 00:58:56;;;;;;;1.88;0.60;;;;;;;13.33;100.00;96644.97;5008183;28;20405;-70
2022/09/10 01:01:22;;;;;;;2.65;0.50;;;;;;;13.30;100.00;96642.97;5013353;28;20053;-70
2022/09/10 01:03:48;;;;;;;3.17;0.50;;;;;;;13.29;100.00;96646.09;5026041;28;20052;-71
2022/09/10 01:06:14;;;;;;;2.38;0.52;;;;;;;13.30;100.00;96642.19;5002755;28;20080;-70
2022/09/10 01:08:40;;;;;;;0.50;0.40;;;;;;;13.19;100.00;96642.13;5025547;28;20064;-70
2022/09/10 01:11:36;;;;;;;1.67;0.70;;;;;;;13.10;100.00;96639.72;5022727;28;20130;-70
2022/09/10 01:14:36;;;;;;;1.70;0.90;;;;;;;13.05;100.00;96636.56;5021631;28;20049;-70
2022/09/10 01:17:11;;;;;;;;;;;;;;;13.10;100.00;96641.69;4992492;28;20064;-69
2022/09/10 01:19:58;;;;;;;2.92;0.65;;;;;;;13.15;100.00;96644.06;5027705;28;19935;-69
2022/09/10 01:22:43;;;;;;;5.25;1.02;;;;;;;13.12;100.00;96647.59;5020825;28;20429;-69
2022/09/10 01:25:48;;;;;;;2.30;0.65;;;;;;;13.11;100.00;96643.28;4971001;28;20120;-70
2022/09/10 01:28:25;;;;;;;3.45;0.60;;;;;;;13.13;100.00;96636.22;5009194;28;20131;-70
2022/09/10 01:30:56;;;;;;;1.38;0.55;;;;;;;13.22;100.00;96648.81;5009411;28;20095;-70
2022/09/10 01:33:34;;;;;;;1.02;0.40;;;;;;;13.23;100.00;96650.41;4996416;28;20057;-70
2022/09/10 01:36:08;;;;;;;3.10;0.50;;;;;;;13.11;100.00;96635.81;5019005;28;20073;-71
2022/09/10 01:38:37;;;;;;;5.00;0.65;;;;;;;13.07;100.00;96637.75;5020840;28;20049;-70
2022/09/10 01:41:03;;;;;;;0.68;0.40;;;;;;;13.06;100.00;96638.13;5021543;28;20070;-70
2022/09/10 01:43:29;;;;;;;1.35;0.50;;;;;;;13.17;100.00;96638.97;5020616;28;20045;-70
2022/09/10 01:46:33;;;;;;;1.85;0.57;;;;;;;13.15;100.00;96633.06;5040759;28;20037;-70
2022/09/10 01:49:21;;;;;;;2.50;0.40;;;;;;;12.69;100.00;96634.34;5024417;28;20033;-71
2022/09/10 01:52:05;;;;;;;3.72;0.85;;;;;;;12.59;100.00;96637.84;5022254;28;20133;-70
2022/09/10 01:55:05;;;;;;;0.52;0.50;;;;;;;12.73;100.00;96631.63;5026400;28;20041;-70
2022/09/10 01:57:43;;;;;;;2.53;0.57;;;;;;;12.74;100.00;96623.00;5022680;28;20050;-70
2022/09/10 02:00:11;;;;;;;2.35;0.70;;;;;;;12.84;100.00;96628.97;5019265;28;20135;-69
2022/09/10 02:02:52;;;;;;;3.20;0.70;;;;;;;12.98;100.00;96626.28;5021840;28;20045;-70
2022/09/10 02:05:21;;;;;;;2.97;0.75;;;;;;;13.07;100.00;96629.50;5015297;28;20045;-69
2022/09/10 02:07:50;;;;;;;5.55;0.80;;;;;;;13.17;100.00;96626.00;5024137;28;20163;-69
2022/09/10 02:10:15;;;;;;;2.67;0.73;;;;;;;13.29;100.00;96618.59;5026027;28;20589;-69
2022/09/10 02:12:41;;;;;;;4.78;0.57;;;;;;;13.34;100.00;96626.50;5024104;28;20279;-69
2022/09/10 02:15:07;;;;;;;2.10;0.45;;;;;;;13.27;100.00;96624.50;5015015;28;20376;-68
2022/09/10 02:17:36;;;;;;;1.13;0.30;;;;;;;13.25;100.00;96615.03;5020732;28;20060;-68
2022/09/10 02:20:06;;;;;;;2.70;0.50;;;;;;;13.32;100.00;96612.34;5022392;28;20091;-68
2022/09/10 02:22:35;;;;;;;0.85;0.45;;;;;;;13.35;100.00;96617.88;5025649;28;20057;-71
2022/09/10 02:25:01;;;;;;;2.28;0.40;;;;;;;13.39;100.00;96615.91;5028657;28;20041;-71
2022/09/10 02:27:28;;;;;;;1.13;0.40;;;;;;;13.41;100.00;96620.25;5022278;28;20043;-71
2022/09/10 02:29:55;;;;;;;4.47;0.50;;;;;;;13.34;100.00;96613.56;5015590;28;20052;-71
2022/09/10 02:32:21;;;;;;;2.95;0.40;;;;;;;13.42;100.00;96611.63;5015430;28;20142;-71
2022/09/10 02:34:47;;;;;;;2.13;0.40;;;;;;;13.56;100.00;96608.13;5015027;28;20176;-71
2022/09/10 02:37:12;;;;;;;2.08;0.40;;;;;;;13.58;100.00;96611.28;5017935;28;20041;-71
2022/09/10 02:39:38;;;;;;;1.17;0.43;;;;;;;13.61;100.00;96615.97;5022916;28;20044;-72
2022/09/10 02:42:04;;;;;;;4.63;0.70;;;;;;;13.62;100.00;96608.53;5015915;28;20088;-67
2022/09/10 02:44:30;;;;;;;3.85;0.50;;;;;;;13.72;100.00;96621.53;4985523;28;20498;-70
2022/09/10 02:46:57;;;;;;;2.08;0.40;;;;;;;13.75;100.00;96621.53;5021463;28;20046;-70
2022/09/10 02:49:23;;;;;;;3.08;0.40;;;;;;;13.67;100.00;96611.69;5001309;28;20136;-70
2022/09/10 02:51:51;;;;;;;1.65;0.43;;;;;;;13.58;100.00;96612.06;5023778;28;20123;-70
2022/09/10 02:54:18;;;;;;;3.05;0.52;;;;;;;13.49;100.00;96616.38;5001443;28;20037;-71
2022/09/10 02:56:44;;;;;;;2.72;0.70;;;;;;;13.38;100.00;96611.59;5021415;28;20515;-71
2022/09/10 02:59:10;;;;;;;2.25;0.55;;;;;;;13.36;100.00;96613.16;5021673;28;20045;-71
2022/09/10 03:01:35;;;;;;;5.93;0.80;;;;;;;13.32;100.00;96613.13;5016139;28;20042;-72
2022/09/10 03:04:01;;;;;;;1.88;0.55;;;;;;;13.27;100.00;96608.00;5021924;28;20654;-70
2022/09/10 03:06:26;;;;;;;3.00;0.60;;;;;;;13.18;100.00;96605.59;5020917;28;20041;-68
2022/09/10 03:08:56;;;;;;;3.00;0.60;;;;;;;13.27;100.00;96607.19;5022098;28;20398;-71
2022/09/10 03:11:23;;;;;;;1.00;0.50;;;;;;;13.41;100.00;96604.53;5013451;28;20590;-69
2022/09/10 03:13:49;;;;;;;2.85;0.60;;;;;;;13.47;100.00;96611.25;5025000;28;20077;-70
2022/09/10 03:16:15;;;;;;;6.28;0.43;;;;;;;13.60;100.00;96610.91;5019024;28;20042;-70
2022/09/10 03:18:42;;;;;;;2.13;0.60;;;;;;;13.64;100.00;96622.69;5027017;28;20413;-68
2022/09/10 03:21:23;;;;;;;1.13;0.40;;;;;;;13.57;100.00;96626.19;5024994;28;20049;-68
2022/09/10 03:23:51;;;;;;;1.15;0.60;;;;;;;13.61;100.00;96620.72;5027328;28;20049;-68
2022/09/10 03:26:18;;;;;;;2.55;0.50;;;;;;;13.55;100.00;96623.84;5003853;28;20496;-69
2022/09/10 03:28:45;;;;;;;2.58;0.50;;;;;;;13.44;100.00;96625.75;5022964;28;20085;-68
2022/09/10 03:31:10;;;;;;;2.42;0.50;;;;;;;13.49;100.00;96616.38;5015036;28;20164;-69
2022/09/10 03:33:36;;;;;;;1.85;0.43;;;;;;;13.46;100.00;96619.88;5023779;28;20490;-69
2022/09/10 03:36:03;;;;;;;2.47;0.60;;;;;;;13.43;100.00;96626.94;5023521;28;20117;-70
2022/09/10 03:38:28;;;;;;;1.05;0.40;;;;;;;13.39;100.00;96626.13;5008515;28;20102;-69
2022/09/10 03:40:54;;;;;;;14.27;4.50;;;;;;;13.37;100.00;96629.25;5008052;28;20134;-68
2022/09/10 03:43:21;;;;;;;1.60;0.60;;;;;;;13.33;100.00;96633.97;5020207;28;20122;-68
2022/09/10 03:45:50;;;;;;;1.33;0.57;;;;;;;13.48;100.00;96634.81;5027399;28;20481;-69
2022/09/10 03:48:17;;;;;;;3.65;0.68;;;;;;;13.49;100.00;96638.38;5023578;28;20092;-68
2022/09/10 03:50:44;;;;;;;2.33;0.50;;;;;;;13.66;100.00;96642.34;5043445;28;20206;-67
2022/09/10 03:53:14;;;;;;;2.45;1.20;;;;;;;13.83;100.00;96646.31;5027216;28;20032;-70
2022/09/10 03:55:42;;;;;;;2.65;0.50;;;;;;;13.85;100.00;96646.75;5016550;28;20038;-68
2022/09/10 03:58:08;;;;;;;3.47;0.85;;;;;;;13.87;100.00;96641.63;5019151;28;20052;-68
2022/09/10 04:00:34;;;;;;;1.13;0.50;;;;;;;13.71;100.00;96636.47;5025830;28;21265;-69
2022/09/10 04:03:00;;;;;;;4.57;0.90;;;;;;;13.67;100.00;96632.94;5023688;28;20109;-69
2022/09/10 04:05:26;;;;;;;3.78;0.50;;;;;;;13.60;100.00;96635.66;5018795;28;20052;-68
2022/09/10 04:07:53;;;;;;;2.83;0.50;;;;;;;13.57;100.00;96638.00;5020954;28;20069;-68
2022/09/10 04:10:20;;;;;;;3.92;0.60;;;;;;;13.43;100.00;96637.94;5016124;28;20036;-68
2022/09/10 04:12:52;;;;;;;3.45;0.88;;;;;;;13.40;100.00;96635.97;4997581;28;20057;-68
2022/09/10 04:15:19;;;;;;;1.13;0.65;;;;;;;13.32;100.00;96623.34;4997348;28;20037;-68
2022/09/10 04:17:50;;;;;;;2.15;0.70;;;;;;;13.31;100.00;96621.78;5025246;28;20124;-68
2022/09/10 04:20:21;;;;;;;3.30;0.50;;;;;;;13.34;100.00;96627.31;5009669;28;20102;-68
2022/09/10 04:22:48;;;;;;;3.25;0.60;;;;;;;13.36;100.00;96624.97;5019268;28;20048;-69
2022/09/10 04:25:14;;;;;;;4.40;0.80;;;;;;;13.28;100.00;96623.31;5017515;28;20064;-69
2022/09/10 04:27:41;;;;;;;0.55;0.50;;;;;;;13.31;100.00;96628.06;5020904;28;20050;-69
2022/09/10 04:30:07;;;;;;;2.70;0.70;;;;;;;13.40;100.00;96630.47;5013714;28;20045;-69
2022/09/10 04:32:33;;;;;;;2.33;0.55;;;;;;;13.37;100.00;96623.75;5022757;28;20497;-69
2022/09/10 04:35:01;;;;;;;4.57;1.38;;;;;;;13.38;100.00;96630.06;5018228;28;20084;-69
2022/09/10 04:37:27;;;;;;;3.17;0.70;;;;;;;13.37;100.00;96634.00;5007801;28;20050;-69
2022/09/10 04:39:53;;;;;;;1.65;0.68;;;;;;;13.41;100.00;96631.25;5003272;28;20041;-69
2022/09/10 04:42:19;;;;;;;3.50;0.70;;;;;;;13.40;100.00;96630.47;5017510;28;20052;-69
2022/09/10 04:44:50;;;;;;;5.05;1.23;;;;;;;13.34;100.00;96635.56;5001470;28;20080;-69
2022/09/10 04:47:17;;;;;;;1.85;0.70;;;;;;;13.49;100.00;96635.63;5000472;28;20417;-69
2022/09/10 04:49:42;;;;;;;4.80;0.68;;;;;;;13.47;100.00;96630.50;5021036;28;20138;-70
2022/09/10 04:52:10;;;;;;;2.60;0.50;;;;;;;13.45;100.00;96626.53;5019913;28;20502;-70
2022/09/10 04:54:36;;;;;;;7.22;0.60;;;;;;;13.51;100.00;96641.53;5023854;28;20045;-69
2022/09/10 04:57:03;;;;;;;1.08;0.60;;;;;;;13.47;100.00;96640.69;5019072;28;20109;-69
2022/09/10 04:59:28;;;;;;;2.72;0.60;;;;;;;13.52;100.00;96632.06;5020782;28;20540;-69
2022/09/10 05:01:54;;;;;;;1.80;0.65;;;;;;;13.53;100.00;96639.16;5033801;28;20045;-69
2022/09/10 05:04:20;;;;;;;1.02;0.50;;;;;;;13.50;100.00;96637.97;5017294;28;20033;-69
2022/09/10 05:06:48;;;;;;;3.05;0.70;;;;;;;13.54;100.00;96638.78;5016513;28;20037;-69
2022/09/10 05:09:17;;;;;;;1.55;0.63;;;;;;;13.49;100.00;96641.91;5015081;28;20037;-68
2022/09/10 05:11:42;;;;;;;2.67;0.90;;;;;;;13.56;100.00;96641.94;5019950;28;20037;-69
2022/09/10 05:14:08;;;;;;;3.25;0.60;;;;;;;13.61;100.00;96646.25;5018603;28;20687;-69
2022/09/10 05:16:35;;;;;;;1.90;0.50;;;;;;;13.53;100.00;96645.44;5002237;28;20041;-70
2022/09/10 05:19:00;;;;;;;4.00;0.77;;;;;;;13.51;100.00;96645.06;5009253;28;20597;-69
2022/09/10 05:21:26;;;;;;;2.58;0.90;;;;;;;13.55;100.00;96645.06;5017295;28;20045;-70
2022/09/10 05:23:51;;;;;;;2.25;0.90;;;;;;;13.56;100.00;96649.41;5020839;28;20052;-70
2022/09/10 05:26:16;;;;;;;6.78;1.75;;;;;;;13.63;100.00;96646.69;5015978;28;20041;-70
2022/09/10 05:28:42;;;;;;;2.40;0.60;;;;;;;13.82;100.00;96656.56;5018937;28;20164;-69
2022/09/10 05:31:08;;;;;;;2.28;0.73;;;;;;;13.85;100.00;96655.00;5009944;28;20046;-69
2022/09/10 05:33:34;;;;;;;2.17;0.65;;;;;;;13.84;100.00;96647.91;5022381;28;20037;-70
2022/09/10 05:36:00;;;;;;;2.47;0.60;;;;;;;13.84;100.00;96656.94;5010873;28;20049;-70
2022/09/10 05:38:25;;;;;;;0.95;0.50;;;;;;;13.93;100.00;96660.13;5018979;28;20485;-69
2022/09/10 05:40:51;;;;;;;1.45;0.52;;;;;;;13.95;100.00;96657.78;5017662;28;20037;-70
2022/09/10 05:43:16;;;;;;;1.25;0.60;;;;;;;13.99;100.00;96660.56;5001568;28;20100;-70
2022/09/10 05:45:42;;;;;;;2.97;0.60;;;;;;;14.06;100.00;96654.25;4997846;28;20180;-69
2022/09/10 05:48:07;;;;;;;1.70;0.50;;;;;;;13.96;100.00;96656.59;5019048;28;20061;-71
2022/09/10 05:50:33;;;;;;;1.33;0.73;;;;;;;13.95;100.00;96657.78;5002681;28;20547;-71
2022/09/10 05:52:59;;;;;;;2.28;0.70;;;;;;;14.01;100.00;96654.63;5018582;28;20053;-70
2022/09/10 05:55:25;;;;;;;2.20;0.60;;;;;;;13.95;100.00;96652.28;5017703;28;20744;-70
2022/09/10 05:57:50;;;;;;;2.08;0.60;;;;;;;14.09;100.00;96659.75;5019175;28;20049;-70
2022/09/10 06:00:15;;;;;;;2.05;0.70;;;;;;;14.14;100.00;96658.59;5026226;28;20076;-69
2022/09/10 06:02:41;;;;;;;3.13;0.77;;;;;;;14.21;100.00;96661.38;5016419;28;20083;-69
2022/09/10 06:05:07;;;;;;;2.13;0.50;;;;;;;14.23;100.00;96667.28;5010671;28;20084;-68
2022/09/10 06:07:33;;;;;;;1.65;0.57;;;;;;;14.41;100.00;96663.75;5027409;28;20029;-70
2022/09/10 06:09:59;;;;;;;1.45;0.50;;;;;;;14.46;100.00;96668.88;5018468;28;20137;-70
2022/09/10 06:12:25;;;;;;;3.08;0.63;;;;;;;14.36;100.00;96675.16;5014035;28;20072;-70
2022/09/10 06:14:51;;;;;;;4.22;0.70;;;;;;;14.37;100.00;96677.53;5021879;28;20040;-69
2022/09/10 06:17:17;;;;;;;2.25;0.55;;;;;;;14.25;100.00;96675.16;5005352;28;20049;-70
2022/09/10 06:19:43;;;;;;;2.33;0.77;;;;;;;14.23;100.00;96683.03;5017337;28;20047;-70
2022/09/10 06:22:09;;;;;;;2.33;0.50;;;;;;;14.19;100.00;96687.72;4987668;28;20044;-69
2022/09/10 06:24:36;;;;;;;2.58;0.73;;;;;;;14.31;100.00;96682.66;5001970;28;20047;-70
2022/09/10 06:27:01;;;;;;;1.13;0.60;;;;;;;14.41;100.00;96686.56;5020445;28;20173;-70
2022/09/10 06:29:28;;;;;;;0.95;0.60;;;;;;;14.52;100.00;96690.13;5012666;28;20133;-70
2022/09/10 06:31:54;;;;;;;2.92;1.02;;;;;;;14.49;100.00;96693.66;5021266;28;20045;-70
2022/09/10 06:34:19;;;;;;;2.42;0.88;;;;;;;14.40;100.00;96690.50;5013355;28;20056;-70
2022/09/10 06:36:48;;;;;;;2.17;0.90;;;;;;;14.31;100.00;96687.34;5020439;28;20044;-71
2022/09/10 06:39:14;;;;;;;2.33;0.52;;;;;;;14.41;100.00;96692.09;5015343;28;20087;-70
2022/09/10 06:41:41;;;;;;;2.58;0.70;;;;;;;14.20;100.00;96690.06;5015917;28;20128;-70
2022/09/10 06:44:07;;;;;;;2.65;0.75;;;;;;;14.13;100.00;96699.13;5018375;28;20087;-71
2022/09/10 06:46:32;;;;;;;3.05;0.93;;;;;;;14.24;100.00;96690.91;5016341;28;20041;-71
2022/09/10 06:49:00;;;;;;;6.07;0.93;;;;;;;14.25;100.00;96699.94;5016994;28;20687;-70
2022/09/10 06:51:25;;;;;;;3.38;0.90;;;;;;;14.12;100.00;96705.81;4998780;28;20045;-70
2022/09/10 06:53:51;;;;;;;3.10;0.65;;;;;;;14.13;100.00;96703.84;5016525;28;20048;-69
2022/09/10 06:56:16;;;;;;;2.55;0.80;;;;;;;14.18;100.00;96703.47;5013433;28;20112;-69
2022/09/10 06:58:42;;;;;;;3.17;0.88;;;;;;;14.32;100.00;96703.50;5017922;28;20041;-69
2022/09/10 07:01:19;;;;;;;2.38;0.98;;;;;;;14.21;100.00;96707.41;5019115;28;20050;-69
2022/09/10 07:03:45;;;;;;;2.47;1.17;;;;;;;14.28;100.00;96704.69;5021559;28;20442;-68
2022/09/10 07:06:14;;;;;;;3.10;0.70;;;;;;;14.32;100.00;96705.47;5021839;28;20064;-69
2022/09/10 07:08:40;;;;;;;2.88;1.05;;;;;;;14.29;100.00;96707.00;5038089;28;20041;-69
2022/09/10 07:11:12;;;;;;;2.58;0.85;;;;;;;14.22;100.00;96708.97;5033781;28;20063;-69
2022/09/10 07:13:39;;;;;;;2.80;0.70;;;;;;;14.32;100.00;96713.72;5031470;28;20046;-70
2022/09/10 07:16:06;;;;;;;5.53;0.85;;;;;;;14.32;100.00;96708.22;5017597;28;20073;-70
2022/09/10 07:18:32;;;;;;;2.05;1.05;;;;;;;14.23;100.00;96714.09;5027620;28;20105;-70
2022/09/10 07:21:07;;;;;;;3.47;1.10;;;;;;;14.15;100.00;96709.75;5031789;28;20045;-69
2022/09/10 07:23:33;;;;;;;5.10;0.95;;;;;;;14.28;100.00;96716.47;5025072;28;20052;-71
2022/09/10 07:26:04;;;;;;;1.35;0.73;;;;;;;14.28;100.00;96719.22;5016420;28;20397;-71
2022/09/10 07:28:30;;;;;;;2.83;0.70;;;;;;;14.34;100.00;96723.16;5017648;28;20042;-71
2022/09/10 07:30:57;;;;;;;2.33;1.25;;;;;;;14.47;100.00;96718.06;5023870;28;20072;-70
2022/09/10 07:33:23;;;;;;;4.47;0.82;;;;;;;14.71;100.00;96721.25;5014137;28;20084;-70
2022/09/10 07:35:50;;;;;;;3.28;0.90;;;;;;;14.73;100.00;96727.19;5024788;28;20512;-70
2022/09/10 07:38:16;;;;;;;3.63;0.77;;;;;;;14.76;100.00;96717.34;5028163;28;20123;-70
2022/09/10 07:40:47;;;;;;;2.30;0.90;;;;;;;14.72;100.00;96736.63;5026758;28;20038;-68
2022/09/10 07:43:12;;;;;;;1.58;0.70;;;;;;;14.71;100.00;96740.56;5016195;28;20048;-69
2022/09/10 07:45:39;;;;;;;3.72;1.13;;;;;;;14.67;100.00;96743.31;5026010;28;20038;-69
2022/09/10 07:48:04;;;;;;;5.97;1.00;;;;;;;14.70;100.00;96750.03;5018478;28;20512;-67
2022/09/10 07:50:29;;;;;;;4.38;0.88;;;;;;;14.66;100.00;96752.78;5020400;28;20041;-69
2022/09/10 07:52:55;;;;;;;3.58;0.80;;;;;;;14.66;100.00;96752.78;5006934;28;20138;-69
2022/09/10 07:55:22;;;;;;;3.13;0.70;;;;;;;14.92;100.00;96756.34;5017838;28;20037;-69
2022/09/10 07:57:47;;;;;;;4.53;0.88;;;;;;;15.05;100.00;96756.72;5019282;28;20120;-69
2022/09/10 08:00:17;;;;;;;5.72;0.82;;;;;;;14.91;100.00;96755.56;5014832;28;20049;-69
2022/09/10 08:02:43;;;;;;;3.78;1.13;;;;;;;15.02;100.00;96757.53;5020184;28;20490;-68
2022/09/10 08:05:10;;;;;;;4.32;1.88;;;;;;;15.18;100.00;96766.19;5001129;28;20036;-68
2022/09/10 08:07:39;;;;;;;3.90;1.30;;;;;;;15.27;100.00;96763.81;5029063;28;20623;-68
2022/09/10 08:10:08;;;;;;;2.60;0.93;;;;;;;15.52;100.00;96773.22;5005046;28;20049;-67
2022/09/10 08:12:38;;;;;;;2.75;0.90;;;;;;;15.62;100.00;96767.69;4999858;28;20542;-68
2022/09/10 08:15:06;;;;;;;2.92;0.85;;;;;;;15.70;100.00;96773.19;5015534;28;20128;-69
2022/09/10 08:17:33;;;;;;;4.43;1.00;;;;;;;15.84;100.00;96773.16;5012961;28;20469;-68
2022/09/10 08:19:58;;;;;;;3.45;1.00;;;;;;;15.81;100.00;96780.28;5019230;28;20065;-68
2022/09/10 08:22:27;;;;;;;2.50;0.80;;;;;;;15.82;100.00;96781.84;5007547;28;20506;-68
2022/09/10 08:24:54;;;;;;;3.80;0.70;;;;;;;15.80;100.00;96777.94;5003696;28;20037;-68
2022/09/10 08:27:20;;;;;;;1.08;0.60;;;;;;;15.96;100.00;96780.25;5010505;28;20045;-68
2022/09/10 08:29:46;;;;;;;3.75;0.80;;;;;;;15.94;100.00;96777.88;5023199;28;20107;-67
2022/09/10 08:32:14;;;;;;;2.15;0.98;;;;;;;15.96;100.00;96775.50;5018329;28;20054;-68
2022/09/10 08:34:40;;;;;;;3.50;0.80;;;;;;;15.92;100.00;96784.97;5017102;28;20037;-68
2022/09/10 08:37:06;;;;;;;2.60;0.77;;;;;;;16.08;100.00;96782.56;5018902;28;20529;-69
2022/09/10 08:39:31;;;;;;;3.67;0.93;;;;;;;15.98;100.00;96786.94;5016891;28;20049;-68
2022/09/10 08:42:04;;;;;;;3.33;0.70;;;;;;;16.10;100.00;96776.63;5019108;28;20061;-68
2022/09/10 08:44:48;;;;;;;4.43;1.00;;;;;;;15.81;100.00;96791.34;5021863;28;20498;-67
2022/09/10 08:47:44;;;;;;;4.03;0.90;;;;;;;15.89;100.00;96788.56;5006010;28;20045;-68
2022/09/10 08:50:36;;;;;;;2.13;0.82;;;;;;;15.85;100.00;96785.81;5017257;28;20041;-68
2022/09/10 08:53:18;;;;;;;2.88;1.25;;;;;;;15.87;100.00;96797.25;5021087;28;20045;-68
2022/09/10 08:55:44;;;;;;;5.43;1.00;;;;;;;15.90;100.00;96792.88;5018916;28;20072;-68
2022/09/10 08:58:24;;;;;;;4.25;0.70;;;;;;;15.98;100.00;96797.97;5011771;28;20041;-70
2022/09/10 09:00:54;;;;;;;1.38;0.50;;;;;;;15.97;100.00;96799.19;5021243;28;20109;-70
2022/09/10 09:03:46;;;;;;;1.73;0.80;;;;;;;15.72;100.00;96799.22;5017765;28;20104;-69
2022/09/10 09:06:37;;;;;;;7.95;4.03;;;;;;;15.77;100.00;96798.03;5018786;28;20038;-67
2022/09/10 09:09:03;;;;;;;5.45;2.90;;;;;;;15.82;100.00;96805.94;5022210;28;20038;-69
2022/09/10 09:11:57;;;;;;;6.28;1.52;;;;;;;15.95;100.00;96804.31;5020149;28;20044;-68
2022/09/10 09:14:59;;;;;;;1.75;0.68;;;;;;;16.23;100.00;96800.66;5030276;28;20045;-68
2022/09/10 09:17:57;;;;;;;2.60;0.80;;;;;;;16.13;100.00;96811.75;5012446;28;20189;-68
2022/09/10 09:20:55;;;;;;;2.83;0.80;;;;;;;16.23;100.00;96803.41;5014137;28;20174;-67
2022/09/10 09:23:37;;;;;;;3.45;0.80;;;;;;;16.25;100.00;96805.78;5015488;28;20032;-68
2022/09/10 09:26:11;;;;;;;5.63;1.17;;;;;;;16.10;100.00;96805.06;5024689;28;20416;-68
2022/09/10 09:28:51;;;;;;;3.33;1.20;;;;;;;16.09;100.00;96811.75;5020417;28;20042;-68
2022/09/10 09:31:26;;;;;;;5.32;1.40;;;;;;;16.40;100.00;96803.72;5017838;28;20036;-67
2022/09/10 09:33:58;;;;;;;5.55;2.75;;;;;;;16.46;100.00;96804.09;5021669;28;20053;-67
2022/09/10 09:36:36;;;;;;;5.57;1.50;;;;;;;16.37;100.00;96807.31;5014058;28;20049;-68
2022/09/10 09:39:10;;;;;;;3.88;1.13;;;;;;;16.32;100.00;96807.72;5029178;28;20394;-68
2022/09/10 09:42:06;;;;;;;5.28;1.00;;;;;;;16.04;100.00;96809.41;5021304;28;20114;-67
2022/09/10 09:44:44;;;;;;;6.65;2.88;;;;;;;16.27;100.00;96813.66;5021908;28;20045;-67
2022/09/10 09:47:10;;;;;;;6.63;1.00;;;;;;;16.56;100.00;96808.78;5009719;28;20127;-67
2022/09/10 09:49:36;;;;;;;2.40;0.80;;;;;;;16.27;100.00;96805.38;5034797;28;20075;-67
2022/09/10 09:52:15;;;;;;;3.00;0.80;;;;;;;16.53;100.00;96809.59;5027074;28;20041;-68
2022/09/10 09:54:46;;;;;;;4.70;0.97;;;;;;;16.57;100.00;96802.06;5016556;28;20041;-68
2022/09/10 09:57:19;;;;;;;2.95;1.00;;;;;;;16.72;100.00;96806.31;5018060;28;20300;-68
2022/09/10 09:59:46;;;;;;;2.70;0.90;;;;;;;16.90;100.00;96799.91;5020531;28;20040;-68
2022/09/10 10:02:19;;;;;;;5.05;0.70;;;;;;;16.81;100.00;96798.34;5037121;28;20045;-68
2022/09/10 10:05:03;;;;;;;6.72;1.10;;;;;;;16.84;100.00;96791.28;5026261;28;20175;-69
2022/09/10 10:07:32;;;;;;;2.20;0.77;;;;;;;16.49;100.00;96789.47;5023130;28;20552;-67
2022/09/10 10:10:06;;;;;;;2.28;0.85;;;;;;;16.89;100.00;96790.84;5035690;28;20048;-66
2022/09/10 10:12:32;;;;;;;4.93;0.90;;;;;;;16.71;100.00;96793.69;5045779;28;20340;-67
2022/09/10 10:15:00;;;;;;;3.72;0.82;;;;;;;16.42;100.00;96787.53;5030602;28;20037;-66
2022/09/10 10:17:35;;;;;;;4.68;0.95;;;;;;;16.38;100.00;96784.78;5019039;28;20099;-66
2022/09/10 10:20:11;;;;;;;3.10;0.70;;;;;;;16.50;100.00;96785.53;5020234;28;20123;-67
2022/09/10 10:22:39;;;;;;;4.38;0.80;;;;;;;16.58;100.00;96787.03;5021632;28;20052;-67
2022/09/10 10:25:37;;;;;;;7.97;1.00;;;;;;;16.85;100.00;96789.28;5025789;28;20052;-68
2022/09/10 10:28:12;;;;;;;2.92;0.70;;;;;;;17.02;100.00;96776.53;5018685;28;20557;-68
2022/09/10 10:30:39;;;;;;;1.83;0.70;;;;;;;17.07;100.00;96773.31;5032108;28;20053;-66
2022/09/10 10:33:17;;;;;;;5.72;1.13;;;;;;;17.14;100.00;96776.00;5024616;28;20049;-68
2022/09/10 10:35:58;;;;;;;3.92;0.75;;;;;;;17.32;100.00;96765.59;5030869;28;20707;-65
2022/09/10 10:38:52;;;;;;;6.97;2.10;;;;;;;17.35;100.00;96775.81;5022705;28;20513;-66
2022/09/10 10:41:26;;;;;;;7.57;2.63;;;;;;;17.44;100.00;96769.81;5009445;28;20033;-66
2022/09/10 10:43:58;;;;;;;9.93;1.70;;;;;;;17.39;100.00;96773.81;5030128;28;20044;-67
2022/09/10 10:46:36;;;;;;;4.05;0.95;;;;;;;17.14;100.00;96770.47;5004900;28;20053;-70
2022/09/10 10:49:04;;;;;;;6.20;1.65;;;;;;;16.97;100.00;96769.44;5031034;28;20402;-67
2022/09/10 10:51:38;;;;;;;3.05;0.88;;;;;;;16.09;100.00;96755.72;5032895;28;20052;-66
2022/09/10 10:54:23;;;;;;;4.00;0.90;;;;;;;16.12;100.00;96758.47;5030185;28;20607;-68
2022/09/10 10:57:07;;;;;;;4.18;0.90;;;;;;;15.78;100.00;96764.50;5042656;28;20041;-67
2022/09/10 10:59:41;;;;;;;4.68;1.10;;;;;;;15.55;100.00;96767.69;5028931;28;20135;-65
2022/09/10 11:02:14;;;;;;;8.02;1.85;;;;;;;15.75;100.00;96764.53;5023310;28;20030;-66
2022/09/10 11:04:49;;;;;;;4.85;1.33;;;;;;;15.63;100.00;96762.97;5028056;28;20041;-68
2022/09/10 11:07:30;;;;;;;4.88;1.40;;;;;;;15.74;100.00;96755.47;5023984;28;20037;-67
2022/09/10 11:10:04;;;;;;;4.65;1.23;;;;;;;16.01;100.00;96747.47;5031874;28;20509;-68
2022/09/10 11:12:48;;;;;;;5.28;1.30;;;;;;;16.27;100.00;96747.34;5028724;28;20191;-68
2022/09/10 11:15:27;;;;;;;6.15;1.83;;;;;;;16.95;100.00;96741.41;5022875;28;20418;-66
2022/09/10 11:18:06;;;;;;;2.85;0.90;;;;;;;17.77;100.00;96743.38;5031247;28;20064;-68
2022/09/10 11:20:37;;;;;;;3.08;0.80;;;;;;;18.58;100.00;96750.25;5033084;28;20037;-68
2022/09/10 11:23:13;;;;;;;5.93;1.40;;;;;;;19.19;100.00;96748.56;5041632;28;20045;-70
2022/09/10 11:25:54;;;;;;;3.28;0.85;;;;;;;19.16;100.00;96747.44;5042396;28;20060;-68
2022/09/10 11:28:37;;;;;;;3.72;0.93;;;;;;;18.87;100.00;96753.44;5022683;28;20036;-67
2022/09/10 11:31:12;;;;;;;3.58;0.90;;;;;;;18.28;100.00;96748.31;5020390;28;20141;-68
2022/09/10 11:33:56;;;;;;;1.98;0.57;;;;;;;18.46;100.00;96748.06;5031031;28;20087;-70
2022/09/10 11:36:31;;;;;;;3.35;0.75;;;;;;;18.80;100.00;96745.19;5017269;28;20139;-69
2022/09/10 11:39:13;;;;;;;2.95;0.60;;;;;;;19.01;100.00;96746.84;5031140;28;20056;-67
2022/09/10 11:41:41;;;;;;;2.67;0.60;;;;;;;18.28;100.00;96746.31;5028580;28;20034;-67